sensor_id;sensor_type;location;lat;lon;timestamp;temperature;humidity
13697;DHT22;6920;50.080;8.226;2022-09-09T00:01:04;15.80;99.90
13697;DHT22;6920;50.080;8.226;2022-09-09T00:03:43;15.70;99.90
13697;DHT22;6920;50.080;8.226;2022-09-09T00:08:58;15.70;99.90
13697;DHT22;6920;50.080;8.226;2022-09-09T00:11:33;15.60;99.90
13697;DHT22;6920;50.080;8.226;2022-09-09T00:14:11;15.60;99.90
13697;DHT22;6920;50.080;8.226;2022-09-09T00:16:41;15.60;99.90
13697;DHT22;6920;50.080;8.226;2022-09-09T00:19:18;15.50;99.90
13697;DHT22;6920;50.080;8.226;2022-09-09T00:21:52;15.50;99.90
13697;DHT22;6920;50.080;8.226;2022-09-09T00:24:29;15.60;99.90
13697;DHT22;6920;50.080;8.226;2022-09-09T00:27:06;15.50;99.90
13697;DHT22;6920;50.080;8.226;2022-09-09T00:29:37;15.40;99.90
13697;DHT22;6920;50.080;8.226;2022-09-09T00:37:10;15.40;99.90
13697;DHT22;6920;50.080;8.226;2022-09-09T00:39:42;15.40;99.90
13697;DHT22;6920;50.080;8.226;2022-09-09T00:42:14;15.30;99.90
13697;DHT22;6920;50.080;8.226;2022-09-09T00:44:52;15.40;99.90
13697;DHT22;6920;50.080;8.226;2022-09-09T00:47:39;15.40;99.90
13697;DHT22;6920;50.080;8.226;2022-09-09T00:50:22;15.30;99.90
13697;DHT22;6920;50.080;8.226;2022-09-09T00:55:41;15.40;99.90
13697;DHT22;6920;50.080;8.226;2022-09-09T01:03:25;15.20;99.90
13697;DHT22;6920;50.080;8.226;2022-09-09T01:09:15;15.20;99.90
13697;DHT22;6920;50.080;8.226;2022-09-09T01:11:59;15.10;99.90
13697;DHT22;6920;50.080;8.226;2022-09-09T01:14:40;15.10;99.90
13697;DHT22;6920;50.080;8.226;2022-09-09T01:17:15;15.10;99.90
13697;DHT22;6920;50.080;8.226;2022-09-09T01:19:59;15.00;99.90
13697;DHT22;6920;50.080;8.226;2022-09-09T01:22:35;15.00;99.90
13697;DHT22;6920;50.080;8.226;2022-09-09T01:25:21;15.00;99.90
13697;DHT22;6920;50.080;8.226;2022-09-09T01:27:55;15.10;99.90
13697;DHT22;6920;50.080;8.226;2022-09-09T01:35:31;15.10;99.90
13697;DHT22;6920;50.080;8.226;2022-09-09T01:42:59;15.00;99.90
13697;DHT22;6920;50.080;8.226;2022-09-09T01:47:55;14.90;99.90
13697;DHT22;6920;50.080;8.226;2022-09-09T01:50:24;14.90;99.90
13697;DHT22;6920;50.080;8.226;2022-09-09T01:59:02;14.70;99.90
13697;DHT22;6920;50.080;8.226;2022-09-09T02:01:45;14.70;99.90
13697;DHT22;6920;50.080;8.226;2022-09-09T02:04:23;14.60;99.90
13697;DHT22;6920;50.080;8.226;2022-09-09T02:06:56;14.70;99.90
13697;DHT22;6920;50.080;8.226;2022-09-09T02:09:24;14.80;99.90
13697;DHT22;6920;50.080;8.226;2022-09-09T02:11:57;14.80;99.90
13697;DHT22;6920;50.080;8.226;2022-09-09T02:14:35;14.80;99.90
13697;DHT22;6920;50.080;8.226;2022-09-09T02:22:07;15.00;99.90
13697;DHT22;6920;50.080;8.226;2022-09-09T02:24:39;14.90;99.90
13697;DHT22;6920;50.080;8.226;2022-09-09T02:27:14;14.90;99.90
13697;DHT22;6920;50.080;8.226;2022-09-09T02:29:55;14.90;99.90
13697;DHT22;6920;50.080;8.226;2022-09-09T02:32:25;15.00;99.90
13697;DHT22;6920;50.080;8.226;2022-09-09T02:34:56;15.00;99.90
13697;DHT22;6920;50.080;8.226;2022-09-09T02:37:29;15.00;99.90
13697;DHT22;6920;50.080;8.226;2022-09-09T02:39:58;15.00;99.90
13697;DHT22;6920;50.080;8.226;2022-09-09T02:42:25;15.10;99.90
13697;DHT22;6920;50.080;8.226;2022-09-09T02:44:54;15.10;99.90
13697;DHT22;6920;50.080;8.226;2022-09-09T02:47:30;15.00;99.90
13697;DHT22;6920;50.080;8.226;2022-09-09T02:50:08;15.00;99.90
13697;DHT22;6920;50.080;8.226;2022-09-09T02:52:45;15.10;99.90
13697;DHT22;6920;50.080;8.226;2022-09-09T02:55:20;15.10;99.90
13697;DHT22;6920;50.080;8.226;2022-09-09T02:57:51;15.20;99.90
13697;DHT22;6920;50.080;8.226;2022-09-09T03:00:24;15.20;99.90
13697;DHT22;6920;50.080;8.226;2022-09-09T03:02:53;15.20;99.90
13697;DHT22;6920;50.080;8.226;2022-09-09T03:05:23;15.20;99.90
13697;DHT22;6920;50.080;8.226;2022-09-09T03:07:52;15.30;99.90
13697;DHT22;6920;50.080;8.226;2022-09-09T03:12:50;15.50;99.90
13697;DHT22;6920;50.080;8.226;2022-09-09T03:15:20;15.50;99.90
13697;DHT22;6920;50.080;8.226;2022-09-09T03:22:44;15.60;99.90
13697;DHT22;6920;50.080;8.226;2022-09-09T03:25:13;15.60;99.90
13697;DHT22;6920;50.080;8.226;2022-09-09T03:30:08;15.50;99.90
13697;DHT22;6920;50.080;8.226;2022-09-09T03:32:35;15.50;99.90
13697;DHT22;6920;50.080;8.226;2022-09-09T03:35:04;15.60;99.90
13697;DHT22;6920;50.080;8.226;2022-09-09T03:37:31;15.60;99.90
13697;DHT22;6920;50.080;8.226;2022-09-09T03:39:58;15.60;99.90
13697;DHT22;6920;50.080;8.226;2022-09-09T03:42:26;15.60;99.90
13697;DHT22;6920;50.080;8.226;2022-09-09T03:44:55;15.70;99.90
13697;DHT22;6920;50.080;8.226;2022-09-09T03:47:25;15.70;99.90
13697;DHT22;6920;50.080;8.226;2022-09-09T03:49:52;15.70;99.90
13697;DHT22;6920;50.080;8.226;2022-09-09T03:52:25;15.80;99.90
13697;DHT22;6920;50.080;8.226;2022-09-09T03:54:54;15.70;99.90
13697;DHT22;6920;50.080;8.226;2022-09-09T03:57:24;15.70;99.90
13697;DHT22;6920;50.080;8.226;2022-09-09T03:59:52;15.70;99.90
13697;DHT22;6920;50.080;8.226;2022-09-09T04:02:19;15.70;99.90
13697;DHT22;6920;50.080;8.226;2022-09-09T04:04:46;15.70;99.90
13697;DHT22;6920;50.080;8.226;2022-09-09T04:07:13;15.70;99.90
13697;DHT22;6920;50.080;8.226;2022-09-09T04:09:42;15.70;99.90
13697;DHT22;6920;50.080;8.226;2022-09-09T04:12:09;15.70;99.90
13697;DHT22;6920;50.080;8.226;2022-09-09T04:14:39;15.80;99.90
13697;DHT22;6920;50.080;8.226;2022-09-09T04:19:33;15.80;99.90
13697;DHT22;6920;50.080;8.226;2022-09-09T04:22:07;15.70;99.90
13697;DHT22;6920;50.080;8.226;2022-09-09T04:24:33;15.60;99.90
13697;DHT22;6920;50.080;8.226;2022-09-09T04:27:02;15.60;99.90
13697;DHT22;6920;50.080;8.226;2022-09-09T04:29:29;15.50;99.90
13697;DHT22;6920;50.080;8.226;2022-09-09T04:31:56;15.50;99.90
13697;DHT22;6920;50.080;8.226;2022-09-09T04:34:23;15.60;99.90
13697;DHT22;6920;50.080;8.226;2022-09-09T04:36:51;15.50;99.90
13697;DHT22;6920;50.080;8.226;2022-09-09T04:44:17;15.40;99.90
13697;DHT22;6920;50.080;8.226;2022-09-09T04:46:46;15.40;99.90
13697;DHT22;6920;50.080;8.226;2022-09-09T04:49:13;15.50;99.90
13697;DHT22;6920;50.080;8.226;2022-09-09T04:51:44;15.50;99.90
13697;DHT22;6920;50.080;8.226;2022-09-09T04:54:12;15.50;99.90
13697;DHT22;6920;50.080;8.226;2022-09-09T04:56:43;15.50;99.90
13697;DHT22;6920;50.080;8.226;2022-09-09T04:59:11;15.50;99.90
13697;DHT22;6920;50.080;8.226;2022-09-09T05:01:39;15.40;99.90
13697;DHT22;6920;50.080;8.226;2022-09-09T05:04:11;15.30;99.90
13697;DHT22;6920;50.080;8.226;2022-09-09T05:06:41;15.30;99.90
13697;DHT22;6920;50.080;8.226;2022-09-09T05:09:09;15.20;99.90
13697;DHT22;6920;50.080;8.226;2022-09-09T05:11:36;15.20;99.90
13697;DHT22;6920;50.080;8.226;2022-09-09T05:16:31;15.30;99.90
13697;DHT22;6920;50.080;8.226;2022-09-09T05:19:01;15.30;99.90
13697;DHT22;6920;50.080;8.226;2022-09-09T05:21:29;14.90;99.90
13697;DHT22;6920;50.080;8.226;2022-09-09T05:23:59;15.50;99.90
13697;DHT22;6920;50.080;8.226;2022-09-09T05:28:58;15.40;99.90
13697;DHT22;6920;50.080;8.226;2022-09-09T05:31:29;15.40;99.90
13697;DHT22;6920;50.080;8.226;2022-09-09T05:33:58;15.40;99.90
13697;DHT22;6920;50.080;8.226;2022-09-09T05:36:28;15.40;99.90
13697;DHT22;6920;50.080;8.226;2022-09-09T05:41:29;15.70;99.90
13697;DHT22;6920;50.080;8.226;2022-09-09T05:44:01;15.80;99.90
13697;DHT22;6920;50.080;8.226;2022-09-09T05:46:30;15.80;99.90
13697;DHT22;6920;50.080;8.226;2022-09-09T05:48:58;15.80;99.90
13697;DHT22;6920;50.080;8.226;2022-09-09T05:51:28;15.80;99.90
13697;DHT22;6920;50.080;8.226;2022-09-09T05:53:56;15.90;99.90
13697;DHT22;6920;50.080;8.226;2022-09-09T05:56:27;15.90;99.90
13697;DHT22;6920;50.080;8.226;2022-09-09T05:58:55;15.90;99.90
13697;DHT22;6920;50.080;8.226;2022-09-09T06:01:25;16.00;99.90
13697;DHT22;6920;50.080;8.226;2022-09-09T06:03:56;16.10;99.90
13697;DHT22;6920;50.080;8.226;2022-09-09T06:06:25;16.20;99.90
13697;DHT22;6920;50.080;8.226;2022-09-09T06:08:55;21.60;99.90
13697;DHT22;6920;50.080;8.226;2022-09-09T06:11:24;16.10;99.90
13697;DHT22;6920;50.080;8.226;2022-09-09T06:14:00;16.10;99.90
13697;DHT22;6920;50.080;8.226;2022-09-09T06:16:33;16.30;99.90
13697;DHT22;6920;50.080;8.226;2022-09-09T06:19:01;16.40;99.90
13697;DHT22;6920;50.080;8.226;2022-09-09T06:21:33;16.40;99.90
13697;DHT22;6920;50.080;8.226;2022-09-09T06:24:03;16.40;99.90
13697;DHT22;6920;50.080;8.226;2022-09-09T06:26:32;16.50;99.90
13697;DHT22;6920;50.080;8.226;2022-09-09T06:29:02;16.60;99.90
13697;DHT22;6920;50.080;8.226;2022-09-09T06:31:30;16.60;99.90
13697;DHT22;6920;50.080;8.226;2022-09-09T06:34:08;16.60;99.90
13697;DHT22;6920;50.080;8.226;2022-09-09T06:36:36;16.70;99.90
13697;DHT22;6920;50.080;8.226;2022-09-09T06:39:10;16.60;99.90
13697;DHT22;6920;50.080;8.226;2022-09-09T06:41:37;16.60;99.90
13697;DHT22;6920;50.080;8.226;2022-09-09T06:44:05;16.50;99.90
13697;DHT22;6920;50.080;8.226;2022-09-09T06:46:32;16.50;99.90
13697;DHT22;6920;50.080;8.226;2022-09-09T06:49:03;16.60;99.90
13697;DHT22;6920;50.080;8.226;2022-09-09T06:51:34;16.50;99.90
13697;DHT22;6920;50.080;8.226;2022-09-09T06:54:03;16.50;99.90
13697;DHT22;6920;50.080;8.226;2022-09-09T06:56:35;16.60;99.90
13697;DHT22;6920;50.080;8.226;2022-09-09T06:59:05;16.70;99.90
13697;DHT22;6920;50.080;8.226;2022-09-09T07:01:37;16.80;99.90
13697;DHT22;6920;50.080;8.226;2022-09-09T07:04:08;16.90;99.90
13697;DHT22;6920;50.080;8.226;2022-09-09T07:06:38;16.90;99.90
13697;DHT22;6920;50.080;8.226;2022-09-09T07:09:09;16.90;99.90
13697;DHT22;6920;50.080;8.226;2022-09-09T07:11:41;16.90;99.90
13697;DHT22;6920;50.080;8.226;2022-09-09T07:14:10;16.90;99.90
13697;DHT22;6920;50.080;8.226;2022-09-09T07:16:40;16.90;99.90
13697;DHT22;6920;50.080;8.226;2022-09-09T07:19:09;17.00;99.90
13697;DHT22;6920;50.080;8.226;2022-09-09T07:21:37;17.00;99.90
13697;DHT22;6920;50.080;8.226;2022-09-09T07:26:33;17.20;99.90
13697;DHT22;6920;50.080;8.226;2022-09-09T07:29:03;17.40;99.90
13697;DHT22;6920;50.080;8.226;2022-09-09T07:31:32;17.80;99.90
13697;DHT22;6920;50.080;8.226;2022-09-09T07:34:00;18.00;99.90
13697;DHT22;6920;50.080;8.226;2022-09-09T07:36:29;18.10;99.90
13697;DHT22;6920;50.080;8.226;2022-09-09T07:38:58;18.10;99.90
13697;DHT22;6920;50.080;8.226;2022-09-09T07:41:28;18.20;99.90
13697;DHT22;6920;50.080;8.226;2022-09-09T07:43:56;18.00;99.90
13697;DHT22;6920;50.080;8.226;2022-09-09T07:46:26;17.90;99.90
13697;DHT22;6920;50.080;8.226;2022-09-09T07:48:54;17.90;99.90
13697;DHT22;6920;50.080;8.226;2022-09-09T07:51:24;17.90;99.90
13697;DHT22;6920;50.080;8.226;2022-09-09T07:53:53;18.00;99.90
13697;DHT22;6920;50.080;8.226;2022-09-09T07:56:20;18.10;99.90
13697;DHT22;6920;50.080;8.226;2022-09-09T07:58:52;18.10;99.90
13697;DHT22;6920;50.080;8.226;2022-09-09T08:01:22;18.20;99.90
13697;DHT22;6920;50.080;8.226;2022-09-09T08:03:55;18.20;99.90
13697;DHT22;6920;50.080;8.226;2022-09-09T08:06:25;18.20;99.90
13697;DHT22;6920;50.080;8.226;2022-09-09T08:08:52;18.30;99.90
13697;DHT22;6920;50.080;8.226;2022-09-09T08:11:21;18.50;99.90
13697;DHT22;6920;50.080;8.226;2022-09-09T08:13:50;18.60;99.90
13697;DHT22;6920;50.080;8.226;2022-09-09T08:16:19;18.70;99.90
13697;DHT22;6920;50.080;8.226;2022-09-09T08:18:47;18.70;99.90
13697;DHT22;6920;50.080;8.226;2022-09-09T08:21:17;18.70;99.90
13697;DHT22;6920;50.080;8.226;2022-09-09T08:23:45;18.70;99.90
13697;DHT22;6920;50.080;8.226;2022-09-09T08:26:15;18.60;99.90
13697;DHT22;6920;50.080;8.226;2022-09-09T08:28:43;18.60;99.90
13697;DHT22;6920;50.080;8.226;2022-09-09T08:31:12;18.40;99.90
13697;DHT22;6920;50.080;8.226;2022-09-09T08:33:39;18.40;99.90
13697;DHT22;6920;50.080;8.226;2022-09-09T08:36:09;18.40;99.90
13697;DHT22;6920;50.080;8.226;2022-09-09T08:38:38;18.50;99.90
13697;DHT22;6920;50.080;8.226;2022-09-09T08:41:35;18.70;99.90
13697;DHT22;6920;50.080;8.226;2022-09-09T08:44:07;18.70;99.90
13697;DHT22;6920;50.080;8.226;2022-09-09T08:46:44;18.70;99.90
13697;DHT22;6920;50.080;8.226;2022-09-09T08:49:24;18.60;99.90
13697;DHT22;6920;50.080;8.226;2022-09-09T08:51:57;18.60;99.90
13697;DHT22;6920;50.080;8.226;2022-09-09T08:54:30;18.60;99.90
13697;DHT22;6920;50.080;8.226;2022-09-09T08:56:59;18.60;99.90
13697;DHT22;6920;50.080;8.226;2022-09-09T08:59:29;18.60;99.90
13697;DHT22;6920;50.080;8.226;2022-09-09T09:02:08;18.60;99.90
13697;DHT22;6920;50.080;8.226;2022-09-09T09:04:56;18.70;99.90
13697;DHT22;6920;50.080;8.226;2022-09-09T09:07:36;18.90;99.90
13697;DHT22;6920;50.080;8.226;2022-09-09T09:10:15;19.10;99.90
13697;DHT22;6920;50.080;8.226;2022-09-09T09:12:47;19.10;99.90
13697;DHT22;6920;50.080;8.226;2022-09-09T09:15:21;19.70;99.90
13697;DHT22;6920;50.080;8.226;2022-09-09T09:17:53;20.50;99.90
13697;DHT22;6920;50.080;8.226;2022-09-09T09:20:27;20.10;99.90
13697;DHT22;6920;50.080;8.226;2022-09-09T09:23:01;20.00;99.90
13697;DHT22;6920;50.080;8.226;2022-09-09T09:25:34;20.10;99.90
13697;DHT22;6920;50.080;8.226;2022-09-09T09:28:20;19.80;99.90
13697;DHT22;6920;50.080;8.226;2022-09-09T09:31:13;19.50;99.90
13697;DHT22;6920;50.080;8.226;2022-09-09T09:33:51;19.50;99.90
13697;DHT22;6920;50.080;8.226;2022-09-09T09:36:37;19.50;99.90
13697;DHT22;6920;50.080;8.226;2022-09-09T09:39:24;19.60;99.90
13697;DHT22;6920;50.080;8.226;2022-09-09T09:41:52;20.30;99.90
13697;DHT22;6920;50.080;8.226;2022-09-09T09:44:25;20.50;99.90
13697;DHT22;6920;50.080;8.226;2022-09-09T09:49:20;20.30;99.90
13697;DHT22;6920;50.080;8.226;2022-09-09T09:51:48;20.30;99.90
13697;DHT22;6920;50.080;8.226;2022-09-09T09:56:52;20.30;99.90
13697;DHT22;6920;50.080;8.226;2022-09-09T10:09:41;22.90;99.90
13697;DHT22;6920;50.080;8.226;2022-09-09T10:15:30;22.80;99.90
13697;DHT22;6920;50.080;8.226;2022-09-09T10:20:43;22.60;99.90
13697;DHT22;6920;50.080;8.226;2022-09-09T10:23:22;22.60;99.90
13697;DHT22;6920;50.080;8.226;2022-09-09T10:26:31;22.80;99.90
13697;DHT22;6920;50.080;8.226;2022-09-09T10:31:45;23.60;99.90
13697;DHT22;6920;50.080;8.226;2022-09-09T10:34:30;23.00;99.90
13697;DHT22;6920;50.080;8.226;2022-09-09T10:37:14;22.30;99.90
13697;DHT22;6920;50.080;8.226;2022-09-09T10:39:43;22.40;99.90
13697;DHT22;6920;50.080;8.226;2022-09-09T10:42:13;22.00;99.90
13697;DHT22;6920;50.080;8.226;2022-09-09T10:44:55;22.10;99.90
13697;DHT22;6920;50.080;8.226;2022-09-09T10:47:47;22.60;99.90
13697;DHT22;6920;50.080;8.226;2022-09-09T10:55:37;23.50;99.90
13697;DHT22;6920;50.080;8.226;2022-09-09T11:00:40;23.50;99.90
13697;DHT22;6920;50.080;8.226;2022-09-09T11:03:15;23.40;99.90
13697;DHT22;6920;50.080;8.226;2022-09-09T11:05:47;23.30;99.90
13697;DHT22;6920;50.080;8.226;2022-09-09T11:08:18;23.10;99.90
13697;DHT22;6920;50.080;8.226;2022-09-09T11:10:50;22.90;99.90
13697;DHT22;6920;50.080;8.226;2022-09-09T11:13:26;22.70;99.90
13697;DHT22;6920;50.080;8.226;2022-09-09T11:16:00;22.50;99.90
13697;DHT22;6920;50.080;8.226;2022-09-09T11:18:44;22.20;99.90
13697;DHT22;6920;50.080;8.226;2022-09-09T11:21:17;21.90;99.90
13697;DHT22;6920;50.080;8.226;2022-09-09T11:23:51;21.90;99.90
13697;DHT22;6920;50.080;8.226;2022-09-09T11:26:29;21.80;99.90
13697;DHT22;6920;50.080;8.226;2022-09-09T11:29:16;21.90;99.90
13697;DHT22;6920;50.080;8.226;2022-09-09T11:31:58;21.80;99.90
13697;DHT22;6920;50.080;8.226;2022-09-09T11:34:37;21.80;99.90
13697;DHT22;6920;50.080;8.226;2022-09-09T11:37:17;21.80;99.90
13697;DHT22;6920;50.080;8.226;2022-09-09T11:40:08;21.70;99.90
13697;DHT22;6920;50.080;8.226;2022-09-09T11:42:36;21.40;99.90
13697;DHT22;6920;50.080;8.226;2022-09-09T11:45:20;21.40;99.90
13697;DHT22;6920;50.080;8.226;2022-09-09T11:47:53;21.30;99.90
13697;DHT22;6920;50.080;8.226;2022-09-09T11:50:31;21.30;99.90
13697;DHT22;6920;50.080;8.226;2022-09-09T11:53:17;21.20;99.90
13697;DHT22;6920;50.080;8.226;2022-09-09T11:55:59;21.10;99.90
13697;DHT22;6920;50.080;8.226;2022-09-09T11:58:28;21.00;99.90
13697;DHT22;6920;50.080;8.226;2022-09-09T12:00:59;21.10;99.90
13697;DHT22;6920;50.080;8.226;2022-09-09T12:03:35;21.00;99.90
13697;DHT22;6920;50.080;8.226;2022-09-09T12:06:11;21.10;99.90
13697;DHT22;6920;50.080;8.226;2022-09-09T12:08:42;20.60;99.90
13697;DHT22;6920;50.080;8.226;2022-09-09T12:13:37;20.40;99.90
13697;DHT22;6920;50.080;8.226;2022-09-09T12:16:30;20.30;99.90
13697;DHT22;6920;50.080;8.226;2022-09-09T12:19:12;20.20;99.90
13697;DHT22;6920;50.080;8.226;2022-09-09T12:21:46;20.20;99.90
13697;DHT22;6920;50.080;8.226;2022-09-09T12:26:56;20.30;99.90
13697;DHT22;6920;50.080;8.226;2022-09-09T12:29:30;20.50;99.90
13697;DHT22;6920;50.080;8.226;2022-09-09T12:32:06;20.60;99.90
13697;DHT22;6920;50.080;8.226;2022-09-09T12:34:38;20.50;99.90
13697;DHT22;6920;50.080;8.226;2022-09-09T12:37:12;20.90;99.90
13697;DHT22;6920;50.080;8.226;2022-09-09T12:39:46;21.60;99.90
13697;DHT22;6920;50.080;8.226;2022-09-09T12:44:52;22.00;99.90
13697;DHT22;6920;50.080;8.226;2022-09-09T12:47:25;22.10;99.90
13697;DHT22;6920;50.080;8.226;2022-09-09T12:49:53;22.00;99.90
13697;DHT22;6920;50.080;8.226;2022-09-09T12:52:27;22.10;99.90
13697;DHT22;6920;50.080;8.226;2022-09-09T12:55:16;22.10;99.90
13697;DHT22;6920;50.080;8.226;2022-09-09T12:57:44;22.80;99.90
13697;DHT22;6920;50.080;8.226;2022-09-09T13:00:15;23.30;99.90
13697;DHT22;6920;50.080;8.226;2022-09-09T13:02:50;23.30;99.90
13697;DHT22;6920;50.080;8.226;2022-09-09T13:05:22;22.90;99.90
13697;DHT22;6920;50.080;8.226;2022-09-09T13:10:24;23.00;99.90
13697;DHT22;6920;50.080;8.226;2022-09-09T13:12:55;23.00;99.90
13697;DHT22;6920;50.080;8.226;2022-09-09T13:15:26;23.00;99.90
13697;DHT22;6920;50.080;8.226;2022-09-09T13:20:27;23.30;99.90
13697;DHT22;6920;50.080;8.226;2022-09-09T13:22:56;23.60;99.90
13697;DHT22;6920;50.080;8.226;2022-09-09T13:25:28;23.10;99.90
13697;DHT22;6920;50.080;8.226;2022-09-09T13:27:59;23.10;99.90
13697;DHT22;6920;50.080;8.226;2022-09-09T13:30:32;22.70;99.90
13697;DHT22;6920;50.080;8.226;2022-09-09T13:33:28;22.80;99.90
13697;DHT22;6920;50.080;8.226;2022-09-09T13:36:01;22.80;99.90
13697;DHT22;6920;50.080;8.226;2022-09-09T13:38:32;22.40;99.90
13697;DHT22;6920;50.080;8.226;2022-09-09T13:41:01;22.10;99.90
13697;DHT22;6920;50.080;8.226;2022-09-09T13:43:33;21.80;99.90
13697;DHT22;6920;50.080;8.226;2022-09-09T13:46:04;21.50;99.90
13697;DHT22;6920;50.080;8.226;2022-09-09T13:48:33;21.30;99.90
13697;DHT22;6920;50.080;8.226;2022-09-09T13:51:02;21.10;99.90
13697;DHT22;6920;50.080;8.226;2022-09-09T13:53:32;21.00;99.90
13697;DHT22;6920;50.080;8.226;2022-09-09T13:56:00;20.80;99.90
13697;DHT22;6920;50.080;8.226;2022-09-09T13:58:27;20.60;99.90
13697;DHT22;6920;50.080;8.226;2022-09-09T14:00:56;20.60;99.90
13697;DHT22;6920;50.080;8.226;2022-09-09T14:03:25;20.40;99.90
13697;DHT22;6920;50.080;8.226;2022-09-09T14:05:57;20.20;99.90
13697;DHT22;6920;50.080;8.226;2022-09-09T14:08:29;20.00;99.90
13697;DHT22;6920;50.080;8.226;2022-09-09T14:11:09;19.90;99.90
13697;DHT22;6920;50.080;8.226;2022-09-09T14:13:51;19.60;99.90
13697;DHT22;6920;50.080;8.226;2022-09-09T14:16:22;19.40;99.90
13697;DHT22;6920;50.080;8.226;2022-09-09T14:18:49;19.20;99.90
13697;DHT22;6920;50.080;8.226;2022-09-09T14:21:18;19.20;99.90
13697;DHT22;6920;50.080;8.226;2022-09-09T14:23:45;19.20;99.90
13697;DHT22;6920;50.080;8.226;2022-09-09T14:26:13;19.70;99.90
13697;DHT22;6920;50.080;8.226;2022-09-09T14:31:14;20.10;99.90
13697;DHT22;6920;50.080;8.226;2022-09-09T14:33:43;20.40;99.90
13697;DHT22;6920;50.080;8.226;2022-09-09T14:38:44;20.80;99.90
13697;DHT22;6920;50.080;8.226;2022-09-09T14:44:12;21.50;99.90
13697;DHT22;6920;50.080;8.226;2022-09-09T14:46:50;21.40;99.90
13697;DHT22;6920;50.080;8.226;2022-09-09T14:52:08;21.50;99.90
13697;DHT22;6920;50.080;8.226;2022-09-09T14:55:01;21.70;99.90
13697;DHT22;6920;50.080;8.226;2022-09-09T14:57:32;21.70;99.90
13697;DHT22;6920;50.080;8.226;2022-09-09T15:00:02;21.40;99.90
13697;DHT22;6920;50.080;8.226;2022-09-09T15:02:34;21.30;99.90
13697;DHT22;6920;50.080;8.226;2022-09-09T15:09:58;20.80;99.90
13697;DHT22;6920;50.080;8.226;2022-09-09T15:19:53;20.70;99.90
13697;DHT22;6920;50.080;8.226;2022-09-09T15:22:26;20.60;99.90
13697;DHT22;6920;50.080;8.226;2022-09-09T15:27:30;20.40;99.90
13697;DHT22;6920;50.080;8.226;2022-09-09T15:30:02;20.30;99.90
13697;DHT22;6920;50.080;8.226;2022-09-09T15:32:41;20.10;99.90
13697;DHT22;6920;50.080;8.226;2022-09-09T15:35:31;20.00;99.90
13697;DHT22;6920;50.080;8.226;2022-09-09T15:38:04;19.90;99.90
13697;DHT22;6920;50.080;8.226;2022-09-09T15:40:32;19.90;99.90
13697;DHT22;6920;50.080;8.226;2022-09-09T15:43:00;19.90;99.90
13697;DHT22;6920;50.080;8.226;2022-09-09T15:45:34;19.80;99.90
13697;DHT22;6920;50.080;8.226;2022-09-09T15:50:29;19.80;99.90
13697;DHT22;6920;50.080;8.226;2022-09-09T15:52:58;19.60;99.90
13697;DHT22;6920;50.080;8.226;2022-09-09T15:55:26;19.50;99.90
13697;DHT22;6920;50.080;8.226;2022-09-09T15:57:53;19.50;99.90
13697;DHT22;6920;50.080;8.226;2022-09-09T16:00:23;19.50;99.90
13697;DHT22;6920;50.080;8.226;2022-09-09T16:02:54;19.60;99.90
13697;DHT22;6920;50.080;8.226;2022-09-09T16:05:21;19.70;99.90
13697;DHT22;6920;50.080;8.226;2022-09-09T16:07:52;19.50;99.90
13697;DHT22;6920;50.080;8.226;2022-09-09T16:10:24;19.40;99.90
13697;DHT22;6920;50.080;8.226;2022-09-09T16:12:56;19.50;99.90
13697;DHT22;6920;50.080;8.226;2022-09-09T16:15:25;19.40;99.90
13697;DHT22;6920;50.080;8.226;2022-09-09T16:17:53;19.40;99.90
13697;DHT22;6920;50.080;8.226;2022-09-09T16:25:15;19.40;99.90
13697;DHT22;6920;50.080;8.226;2022-09-09T16:27:44;19.50;99.90
13697;DHT22;6920;50.080;8.226;2022-09-09T16:30:12;19.40;99.90
13697;DHT22;6920;50.080;8.226;2022-09-09T16:32:46;19.40;99.90
13697;DHT22;6920;50.080;8.226;2022-09-09T16:35:13;19.40;99.90
13697;DHT22;6920;50.080;8.226;2022-09-09T16:37:44;19.30;99.90
13697;DHT22;6920;50.080;8.226;2022-09-09T16:40:12;19.40;99.90
13697;DHT22;6920;50.080;8.226;2022-09-09T16:47:36;19.20;99.90
13697;DHT22;6920;50.080;8.226;2022-09-09T16:50:06;19.10;99.90
13697;DHT22;6920;50.080;8.226;2022-09-09T16:52:33;19.20;99.90
13697;DHT22;6920;50.080;8.226;2022-09-09T16:57:29;19.00;99.90
13697;DHT22;6920;50.080;8.226;2022-09-09T16:59:56;19.00;99.90
13697;DHT22;6920;50.080;8.226;2022-09-09T17:02:24;18.80;99.90
13697;DHT22;6920;50.080;8.226;2022-09-09T17:04:53;18.60;99.90
13697;DHT22;6920;50.080;8.226;2022-09-09T17:07:28;18.40;99.90
13697;DHT22;6920;50.080;8.226;2022-09-09T17:09:59;18.20;99.90
13697;DHT22;6920;50.080;8.226;2022-09-09T17:12:26;18.10;99.90
13697;DHT22;6920;50.080;8.226;2022-09-09T17:25:11;17.60;99.90
13697;DHT22;6920;50.080;8.226;2022-09-09T17:30:16;17.40;99.90
13697;DHT22;6920;50.080;8.226;2022-09-09T17:32:50;17.30;99.90
13697;DHT22;6920;50.080;8.226;2022-09-09T17:40:31;17.20;99.90
13697;DHT22;6920;50.080;8.226;2022-09-09T17:42:58;17.20;99.90
13697;DHT22;6920;50.080;8.226;2022-09-09T17:45:40;17.20;99.90
13697;DHT22;6920;50.080;8.226;2022-09-09T17:53:26;17.00;99.90
13697;DHT22;6920;50.080;8.226;2022-09-09T17:58:31;17.00;99.90
13697;DHT22;6920;50.080;8.226;2022-09-09T18:01:12;17.10;99.90
13697;DHT22;6920;50.080;8.226;2022-09-09T18:03:48;17.00;99.90
13697;DHT22;6920;50.080;8.226;2022-09-09T18:06:21;16.90;99.90
13697;DHT22;6920;50.080;8.226;2022-09-09T18:09:04;16.90;99.90
13697;DHT22;6920;50.080;8.226;2022-09-09T18:11:44;16.90;99.90
13697;DHT22;6920;50.080;8.226;2022-09-09T18:14:23;16.80;99.90
13697;DHT22;6920;50.080;8.226;2022-09-09T18:16:54;16.80;99.90
13697;DHT22;6920;50.080;8.226;2022-09-09T18:19:24;16.80;99.90
13697;DHT22;6920;50.080;8.226;2022-09-09T18:21:52;16.70;99.90
13697;DHT22;6920;50.080;8.226;2022-09-09T18:24:21;16.70;99.90
13697;DHT22;6920;50.080;8.226;2022-09-09T18:29:20;16.40;99.90
13697;DHT22;6920;50.080;8.226;2022-09-09T18:31:49;16.30;99.90
13697;DHT22;6920;50.080;8.226;2022-09-09T18:34:24;16.20;99.90
13697;DHT22;6920;50.080;8.226;2022-09-09T18:36:54;16.00;99.90
13697;DHT22;6920;50.080;8.226;2022-09-09T18:44:22;15.80;99.90
13697;DHT22;6920;50.080;8.226;2022-09-09T19:01:58;15.30;99.90
13697;DHT22;6920;50.080;8.226;2022-09-09T19:14:26;14.90;99.90
13697;DHT22;6920;50.080;8.226;2022-09-09T19:16:55;14.80;99.90
13697;DHT22;6920;50.080;8.226;2022-09-09T19:19:27;14.90;99.90
13697;DHT22;6920;50.080;8.226;2022-09-09T19:21:55;14.80;99.90
13697;DHT22;6920;50.080;8.226;2022-09-09T19:24:26;14.80;99.90
13697;DHT22;6920;50.080;8.226;2022-09-09T19:26:58;14.80;99.90
13697;DHT22;6920;50.080;8.226;2022-09-09T19:29:27;14.80;99.90
13697;DHT22;6920;50.080;8.226;2022-09-09T19:31:56;14.80;99.90
13697;DHT22;6920;50.080;8.226;2022-09-09T19:34:26;14.80;99.90
13697;DHT22;6920;50.080;8.226;2022-09-09T19:41:48;14.70;99.90
13697;DHT22;6920;50.080;8.226;2022-09-09T19:44:18;14.80;99.90
13697;DHT22;6920;50.080;8.226;2022-09-09T19:46:46;14.80;99.90
13697;DHT22;6920;50.080;8.226;2022-09-09T19:49:15;14.90;99.90
13697;DHT22;6920;50.080;8.226;2022-09-09T19:51:42;14.90;99.90
13697;DHT22;6920;50.080;8.226;2022-09-09T19:54:12;14.90;99.90